PWSweather.com
Personal Weather Stations
Station Observations
ALOHA852
Aloha, OR

Aloha, OR

Lat: 45.476667, Lon: -122.894722

Elevation: 278

Station Type: Ambient Weather

Latest ConditionsUpdated 1:38:00 AM PDT Sunday, Apr 20, 2014
Currently Today's Max Today's Min Today's Average
Temperature 46.9°F8.3°C 48.4°F9.1°C 46.8°F8.2°C 47.6°F8.7°C
Dew Point 44.2°F6.8°C 45.0°F7.2°C 43.9°F6.6°C 44.4°F6.9°C
Winds 1.8 mph NNE2.9 kmh NNE 5.9 mph N9.5 kmh N - 3.0 mph 4.8 kmh
Wind Gusts 3.1 mph5.0 kmh 9.8 mph15.8 kmh - -
Humidity 90% 91% 86% 89%
Pressure 29.87 in1011.5 mb 29.87 in1011.5 mb 29.84 in1010.5 mb -
Hour Temp Dew Point Humidity Winds Wind Gusts Pressure Precip Precip Rate Daily Precip Total
01:38 AM 46.9°F8.3°C 44.2°F6.8°C 90% 1.8 mph NNE2.9 kmh NNE 3.1 mph5.0 kmh 29.87 in1011.5 mb 0.00 in0.0 mm 0.00 in/hr0.0 mm/hr 0.00 in0.0 mm
01:37 AM 47.1°F8.4°C 44.6°F7.0°C 91% 1.9 mph NNE3.1 kmh NNE 3.1 mph5.0 kmh 29.87 in1011.5 mb 0.00 in0.0 mm 0.00 in/hr0.0 mm/hr 0.00 in0.0 mm
01:36 AM 46.9°F8.3°C 44.5°F6.9°C 91% 1.7 mph NNE2.7 kmh NNE 3.1 mph5.0 kmh 29.86 in1011.2 mb 0.00 in0.0 mm 0.00 in/hr0.0 mm/hr 0.00 in0.0 mm
01:35 AM 46.9°F8.3°C 44.2°F6.8°C 90% 1.6 mph NE2.6 kmh NE 3.1 mph5.0 kmh 29.86 in1011.2 mb 0.00 in0.0 mm 0.00 in/hr0.0 mm/hr 0.00 in0.0 mm
01:34 AM 47.1°F8.4°C 44.3°F6.8°C 90% 1.6 mph NE2.6 kmh NE 3.1 mph5.0 kmh 29.86 in1011.2 mb 0.00 in0.0 mm 0.00 in/hr0.0 mm/hr 0.00 in0.0 mm
01:33 AM 47.1°F8.4°C 44.3°F6.8°C 90% 1.5 mph NE2.4 kmh NE 3.1 mph5.0 kmh 29.87 in1011.5 mb 0.00 in0.0 mm 0.00 in/hr0.0 mm/hr 0.00 in0.0 mm
01:32 AM 47.1°F8.4°C 44.3°F6.8°C 90% 1.5 mph NE2.4 kmh NE 3.1 mph5.0 kmh 29.86 in1011.2 mb 0.00 in0.0 mm 0.00 in/hr0.0 mm/hr 0.00 in0.0 mm
01:31 AM 46.9°F8.3°C 44.5°F6.9°C 91% 1.6 mph NE2.6 kmh NE 3.1 mph5.0 kmh 29.86 in1011.2 mb 0.00 in0.0 mm 0.00 in/hr0.0 mm/hr 0.00 in0.0 mm
01:30 AM 47.1°F8.4°C 44.6°F7.0°C 91% 1.6 mph NE2.6 kmh NE 3.1 mph5.0 kmh 29.86 in1011.2 mb 0.00 in0.0 mm 0.00 in/hr0.0 mm/hr 0.00 in0.0 mm
01:29 AM 47.5°F8.6°C 45.0°F7.2°C 91% 1.5 mph NE2.4 kmh NE 3.1 mph5.0 kmh 29.87 in1011.5 mb 0.00 in0.0 mm 0.00 in/hr0.0 mm/hr 0.00 in0.0 mm
01:28 AM 47.1°F8.4°C 44.6°F7.0°C 91% 1.4 mph NE2.3 kmh NE 3.1 mph5.0 kmh 29.86 in1011.2 mb 0.00 in0.0 mm 0.00 in/hr0.0 mm/hr 0.00 in0.0 mm
01:27 AM 47.1°F8.4°C 44.6°F7.0°C 91% 1.1 mph NE1.8 kmh NE 2.2 mph3.5 kmh 29.86 in1011.2 mb 0.00 in0.0 mm 0.00 in/hr0.0 mm/hr 0.00 in0.0 mm
01:26 AM 47.1°F8.4°C 44.6°F7.0°C 91% 1.1 mph NE1.8 kmh NE 2.2 mph3.5 kmh 29.86 in1011.2 mb 0.00 in0.0 mm 0.00 in/hr0.0 mm/hr 0.00 in0.0 mm
01:25 AM 47.1°F8.4°C 44.6°F7.0°C 91% 1.1 mph NE1.8 kmh NE 2.2 mph3.5 kmh 29.86 in1011.2 mb 0.00 in0.0 mm 0.00 in/hr0.0 mm/hr 0.00 in0.0 mm
01:24 AM 46.9°F8.3°C 44.5°F6.9°C 91% 1.1 mph NE1.8 kmh NE 2.2 mph3.5 kmh 29.86 in1011.2 mb 0.00 in0.0 mm 0.00 in/hr0.0 mm/hr 0.00 in0.0 mm
01:23 AM 46.8°F8.2°C 44.3°F6.8°C 91% 1.1 mph NE1.8 kmh NE 2.2 mph3.5 kmh 29.86 in1011.2 mb 0.00 in0.0 mm 0.00 in/hr0.0 mm/hr 0.00 in0.0 mm
01:22 AM 47.1°F8.4°C 44.6°F7.0°C 91% 1.0 mph NE1.6 kmh NE 2.2 mph3.5 kmh 29.86 in1011.2 mb 0.00 in0.0 mm 0.00 in/hr0.0 mm/hr 0.00 in0.0 mm
01:21 AM 47.1°F8.4°C 44.6°F7.0°C 91% 0.9 mph NE1.4 kmh NE 2.2 mph3.5 kmh 29.86 in1011.2 mb 0.00 in0.0 mm 0.00 in/hr0.0 mm/hr 0.00 in0.0 mm
01:20 AM 47.3°F8.5°C 44.8°F7.1°C 91% 0.8 mph NE1.3 kmh NE 2.2 mph3.5 kmh 29.86 in1011.2 mb 0.00 in0.0 mm 0.00 in/hr0.0 mm/hr 0.00 in0.0 mm
01:19 AM 47.1°F8.4°C 44.6°F7.0°C 91% 0.8 mph NE1.3 kmh NE 2.2 mph3.5 kmh 29.86 in1011.2 mb 0.00 in0.0 mm 0.00 in/hr0.0 mm/hr 0.00 in0.0 mm
01:18 AM 47.1°F8.4°C 44.6°F7.0°C 91% 0.9 mph NNE1.4 kmh NNE 2.2 mph3.5 kmh 29.86 in1011.2 mb 0.00 in0.0 mm 0.00 in/hr0.0 mm/hr 0.00 in0.0 mm
01:17 AM 47.1°F8.4°C 44.6°F7.0°C 91% 0.9 mph NNE1.4 kmh NNE 2.2 mph3.5 kmh 29.86 in1011.2 mb 0.00 in0.0 mm 0.00 in/hr0.0 mm/hr 0.00 in0.0 mm
01:16 AM 46.9°F8.3°C 44.5°F6.9°C 91% 1.0 mph NNE1.6 kmh NNE 3.1 mph5.0 kmh 29.86 in1011.2 mb 0.00 in0.0 mm 0.00 in/hr0.0 mm/hr 0.00 in0.0 mm
01:15 AM 47.1°F8.4°C 44.6°F7.0°C 91% 1.1 mph N1.8 kmh N 3.1 mph5.0 kmh 29.86 in1011.2 mb 0.00 in0.0 mm 0.00 in/hr0.0 mm/hr 0.00 in0.0 mm
01:14 AM 46.9°F8.3°C 44.2°F6.8°C 90% 0.9 mph N1.4 kmh N 3.1 mph5.0 kmh 29.86 in1011.2 mb 0.00 in0.0 mm 0.00 in/hr0.0 mm/hr 0.00 in0.0 mm
01:13 AM 47.3°F8.5°C 44.5°F6.9°C 90% 0.8 mph N1.3 kmh N 3.1 mph5.0 kmh 29.86 in1011.2 mb 0.00 in0.0 mm 0.00 in/hr0.0 mm/hr 0.00 in0.0 mm
01:12 AM 47.3°F8.5°C 44.5°F6.9°C 90% 0.8 mph N1.3 kmh N 3.1 mph5.0 kmh 29.86 in1011.2 mb 0.00 in0.0 mm 0.00 in/hr0.0 mm/hr 0.00 in0.0 mm
01:11 AM 46.8°F8.2°C 44.0°F6.7°C 90% 0.9 mph N1.4 kmh N 3.1 mph5.0 kmh 29.86 in1011.2 mb 0.00 in0.0 mm 0.00 in/hr0.0 mm/hr 0.00 in0.0 mm
01:10 AM 47.5°F8.6°C 44.7°F7.1°C 90% 1.0 mph N1.6 kmh N 3.1 mph5.0 kmh 29.86 in1011.2 mb 0.00 in0.0 mm 0.00 in/hr0.0 mm/hr 0.00 in0.0 mm
01:09 AM 47.5°F8.6°C 44.7°F7.1°C 90% 1.2 mph N1.9 kmh N 3.1 mph5.0 kmh 29.86 in1011.2 mb 0.00 in0.0 mm 0.00 in/hr0.0 mm/hr 0.00 in0.0 mm
01:08 AM 47.3°F8.5°C 44.5°F6.9°C 90% 1.4 mph N2.3 kmh N 3.1 mph5.0 kmh 29.86 in1011.2 mb 0.00 in0.0 mm 0.00 in/hr0.0 mm/hr 0.00 in0.0 mm
01:07 AM 47.3°F8.5°C 44.5°F6.9°C 90% 1.5 mph N2.4 kmh N 3.1 mph5.0 kmh 29.86 in1011.2 mb 0.00 in0.0 mm 0.00 in/hr0.0 mm/hr 0.00 in0.0 mm
01:06 AM 47.3°F8.5°C 44.5°F6.9°C 90% 1.5 mph N2.4 kmh N 3.1 mph5.0 kmh 29.86 in1011.2 mb 0.00 in0.0 mm 0.00 in/hr0.0 mm/hr 0.00 in0.0 mm
01:05 AM 47.3°F8.5°C 44.5°F6.9°C 90% 1.6 mph NNE2.6 kmh NNE 3.8 mph6.1 kmh 29.86 in1011.2 mb 0.00 in0.0 mm 0.00 in/hr0.0 mm/hr 0.00 in0.0 mm
01:04 AM 47.3°F8.5°C 44.5°F6.9°C 90% 1.8 mph NNE2.9 kmh NNE 3.8 mph6.1 kmh 29.86 in1011.2 mb 0.00 in0.0 mm 0.00 in/hr0.0 mm/hr 0.00 in0.0 mm
01:03 AM 47.3°F8.5°C 44.5°F6.9°C 90% 2.0 mph NNE3.2 kmh NNE 3.8 mph6.1 kmh 29.86 in1011.2 mb 0.00 in0.0 mm 0.00 in/hr0.0 mm/hr 0.00 in0.0 mm
01:02 AM 47.3°F8.5°C 44.5°F6.9°C 90% 2.3 mph NNE3.7 kmh NNE 3.8 mph6.1 kmh 29.86 in1011.2 mb 0.00 in0.0 mm 0.00 in/hr0.0 mm/hr 0.00 in0.0 mm
01:01 AM 47.1°F8.4°C 44.3°F6.8°C 90% 2.5 mph NNE4.0 kmh NNE 3.8 mph6.1 kmh 29.86 in1011.2 mb 0.00 in0.0 mm 0.00 in/hr0.0 mm/hr 0.00 in0.0 mm
01:00 AM 47.3°F8.5°C 44.5°F6.9°C 90% 2.6 mph NNE4.2 kmh NNE 3.8 mph6.1 kmh 29.86 in1011.2 mb 0.00 in0.0 mm 0.00 in/hr0.0 mm/hr 0.00 in0.0 mm
12:59 AM 47.3°F8.5°C 44.5°F6.9°C 90% 2.5 mph NE4.0 kmh NE 3.8 mph6.1 kmh 29.86 in1011.2 mb 0.00 in0.0 mm 0.00 in/hr0.0 mm/hr 0.00 in0.0 mm
12:58 AM 47.3°F8.5°C 44.5°F6.9°C 90% 2.4 mph NE3.9 kmh NE 3.8 mph6.1 kmh 29.86 in1011.2 mb 0.00 in0.0 mm 0.00 in/hr0.0 mm/hr 0.00 in0.0 mm
12:57 AM 47.5°F8.6°C 44.7°F7.1°C 90% 2.5 mph NE4.0 kmh NE 3.8 mph6.1 kmh 29.86 in1011.2 mb 0.00 in0.0 mm 0.00 in/hr0.0 mm/hr 0.00 in0.0 mm
12:56 AM 47.3°F8.5°C 44.5°F6.9°C 90% 2.5 mph NE4.0 kmh NE 3.8 mph6.1 kmh 29.86 in1011.2 mb 0.00 in0.0 mm 0.00 in/hr0.0 mm/hr 0.00 in0.0 mm
12:55 AM 47.5°F8.6°C 44.7°F7.1°C 90% 2.4 mph NE3.9 kmh NE 3.8 mph6.1 kmh 29.86 in1011.2 mb 0.00 in0.0 mm 0.00 in/hr0.0 mm/hr 0.00 in0.0 mm
12:54 AM 46.9°F8.3°C 44.2°F6.8°C 90% 2.3 mph NE3.7 kmh NE 3.1 mph5.0 kmh 29.86 in1011.2 mb 0.00 in0.0 mm 0.00 in/hr0.0 mm/hr 0.00 in0.0 mm
12:53 AM 47.5°F8.6°C 44.7°F7.1°C 90% 2.3 mph NE3.7 kmh NE 3.1 mph5.0 kmh 29.86 in1011.2 mb 0.00 in0.0 mm 0.00 in/hr0.0 mm/hr 0.00 in0.0 mm
12:52 AM 47.3°F8.5°C 44.2°F6.8°C 89% 2.3 mph NE3.7 kmh NE 3.1 mph5.0 kmh 29.86 in1011.2 mb 0.00 in0.0 mm 0.00 in/hr0.0 mm/hr 0.00 in0.0 mm
12:51 AM 47.5°F8.6°C 44.4°F6.9°C 89% 2.5 mph NE4.0 kmh NE 5.4 mph8.7 kmh 29.86 in1011.2 mb 0.00 in0.0 mm 0.00 in/hr0.0 mm/hr 0.00 in0.0 mm
12:50 AM 47.5°F8.6°C 44.4°F6.9°C 89% 2.6 mph NE4.2 kmh NE 5.4 mph8.7 kmh 29.86 in1011.2 mb 0.00 in0.0 mm 0.00 in/hr0.0 mm/hr 0.00 in0.0 mm
12:49 AM 47.8°F8.8°C 44.8°F7.1°C 89% 2.8 mph NE4.5 kmh NE 5.4 mph8.7 kmh 29.86 in1011.2 mb 0.00 in0.0 mm 0.00 in/hr0.0 mm/hr 0.00 in0.0 mm
12:48 AM 47.7°F8.7°C 44.3°F6.8°C 88% 3.2 mph NE5.1 kmh NE 6.0 mph9.7 kmh 29.86 in1011.2 mb 0.00 in0.0 mm 0.00 in/hr0.0 mm/hr 0.00 in0.0 mm
12:47 AM 47.8°F8.8°C 44.5°F6.9°C 88% 3.5 mph NE5.6 kmh NE 9.8 mph15.8 kmh 29.86 in1011.2 mb 0.00 in0.0 mm 0.00 in/hr0.0 mm/hr 0.00 in0.0 mm
12:46 AM 47.8°F8.8°C 44.5°F6.9°C 88% 4.0 mph NNE6.4 kmh NNE 9.8 mph15.8 kmh 29.86 in1011.2 mb 0.00 in0.0 mm 0.00 in/hr0.0 mm/hr 0.00 in0.0 mm
12:45 AM 47.5°F8.6°C 44.1°F6.7°C 88% 4.2 mph NNE6.8 kmh NNE 9.8 mph15.8 kmh 29.86 in1011.2 mb 0.00 in0.0 mm 0.00 in/hr0.0 mm/hr 0.00 in0.0 mm
12:44 AM 47.8°F8.8°C 44.5°F6.9°C 88% 4.4 mph NNE7.1 kmh NNE 9.8 mph15.8 kmh 29.85 in1010.8 mb 0.00 in0.0 mm 0.00 in/hr0.0 mm/hr 0.00 in0.0 mm
12:43 AM 48.0°F8.9°C 44.6°F7.0°C 88% 4.8 mph NNE7.7 kmh NNE 9.8 mph15.8 kmh 29.86 in1011.2 mb 0.00 in0.0 mm 0.00 in/hr0.0 mm/hr 0.00 in0.0 mm
12:42 AM 48.0°F8.9°C 44.6°F7.0°C 88% 5.0 mph NNE8.0 kmh NNE 9.8 mph15.8 kmh 29.85 in1010.8 mb 0.00 in0.0 mm 0.00 in/hr0.0 mm/hr 0.00 in0.0 mm
12:41 AM 48.0°F8.9°C 44.6°F7.0°C 88% 4.8 mph N7.7 kmh N 9.8 mph15.8 kmh 29.85 in1010.8 mb 0.00 in0.0 mm 0.00 in/hr0.0 mm/hr 0.00 in0.0 mm
12:40 AM 47.8°F8.8°C 44.2°F6.8°C 87% 4.8 mph N7.7 kmh N 9.8 mph15.8 kmh 29.86 in1011.2 mb 0.00 in0.0 mm 0.00 in/hr0.0 mm/hr 0.00 in0.0 mm
12:39 AM 48.2°F9.0°C 44.5°F6.9°C 87% 4.8 mph N7.7 kmh N 9.8 mph15.8 kmh 29.86 in1011.2 mb 0.00 in0.0 mm 0.00 in/hr0.0 mm/hr 0.00 in0.0 mm
12:38 AM 48.2°F9.0°C 44.5°F6.9°C 87% 4.7 mph N7.6 kmh N 9.8 mph15.8 kmh 29.86 in1011.2 mb 0.00 in0.0 mm 0.00 in/hr0.0 mm/hr 0.00 in0.0 mm
12:37 AM 48.2°F9.0°C 44.5°F6.9°C 87% 4.6 mph N7.4 kmh N 9.8 mph15.8 kmh 29.85 in1010.8 mb 0.00 in0.0 mm 0.00 in/hr0.0 mm/hr 0.00 in0.0 mm
12:36 AM 48.0°F8.9°C 44.3°F6.8°C 87% 4.3 mph NNE6.9 kmh NNE 6.0 mph9.7 kmh 29.86 in1011.2 mb 0.00 in0.0 mm 0.00 in/hr0.0 mm/hr 0.00 in0.0 mm
12:35 AM 47.8°F8.8°C 44.2°F6.8°C 87% 4.3 mph NNE6.9 kmh NNE 6.0 mph9.7 kmh 29.86 in1011.2 mb 0.00 in0.0 mm 0.00 in/hr0.0 mm/hr 0.00 in0.0 mm
12:34 AM 47.8°F8.8°C 44.2°F6.8°C 87% 4.3 mph NNE6.9 kmh NNE 6.0 mph9.7 kmh 29.85 in1010.8 mb 0.00 in0.0 mm 0.00 in/hr0.0 mm/hr 0.00 in0.0 mm
12:33 AM 48.0°F8.9°C 44.3°F6.8°C 87% 4.3 mph NNE6.9 kmh NNE 6.0 mph9.7 kmh 29.86 in1011.2 mb 0.00 in0.0 mm 0.00 in/hr0.0 mm/hr 0.00 in0.0 mm
12:32 AM 48.4°F9.1°C 44.7°F7.1°C 87% 4.4 mph NNE7.1 kmh NNE 6.9 mph11.1 kmh 29.85 in1010.8 mb 0.00 in0.0 mm 0.00 in/hr0.0 mm/hr 0.00 in0.0 mm
12:31 AM 48.0°F8.9°C 44.0°F6.7°C 86% 4.6 mph NNE7.4 kmh NNE 6.9 mph11.1 kmh 29.85 in1010.8 mb 0.00 in0.0 mm 0.00 in/hr0.0 mm/hr 0.00 in0.0 mm
12:30 AM 47.8°F8.8°C 43.9°F6.6°C 86% 4.8 mph NNE7.7 kmh NNE 6.9 mph11.1 kmh 29.85 in1010.8 mb 0.00 in0.0 mm 0.00 in/hr0.0 mm/hr 0.00 in0.0 mm
12:29 AM 48.2°F9.0°C 44.2°F6.8°C 86% 5.0 mph NNE8.0 kmh NNE 6.9 mph11.1 kmh 29.85 in1010.8 mb 0.00 in0.0 mm 0.00 in/hr0.0 mm/hr 0.00 in0.0 mm
12:28 AM 48.2°F9.0°C 44.2°F6.8°C 86% 5.3 mph NNE8.5 kmh NNE 8.3 mph13.4 kmh 29.85 in1010.8 mb 0.00 in0.0 mm 0.00 in/hr0.0 mm/hr 0.00 in0.0 mm
12:27 AM 48.4°F9.1°C 44.4°F6.9°C 86% 5.3 mph N8.5 kmh N 8.3 mph13.4 kmh 29.85 in1010.8 mb 0.00 in0.0 mm 0.00 in/hr0.0 mm/hr 0.00 in0.0 mm
12:26 AM 48.4°F9.1°C 44.4°F6.9°C 86% 5.4 mph N8.7 kmh N 8.3 mph13.4 kmh 29.85 in1010.8 mb 0.00 in0.0 mm 0.00 in/hr0.0 mm/hr 0.00 in0.0 mm
12:25 AM 48.2°F9.0°C 44.2°F6.8°C 86% 5.7 mph N9.2 kmh N 8.3 mph13.4 kmh 29.85 in1010.8 mb 0.00 in0.0 mm 0.00 in/hr0.0 mm/hr 0.00 in0.0 mm
12:24 AM 48.2°F9.0°C 44.2°F6.8°C 86% 5.9 mph N9.5 kmh N 8.3 mph13.4 kmh 29.85 in1010.8 mb 0.00 in0.0 mm 0.00 in/hr0.0 mm/hr 0.00 in0.0 mm
12:23 AM 48.0°F8.9°C 44.0°F6.7°C 86% 5.8 mph N9.3 kmh N 8.3 mph13.4 kmh 29.85 in1010.8 mb 0.00 in0.0 mm 0.00 in/hr0.0 mm/hr 0.00 in0.0 mm
12:22 AM 48.2°F9.0°C 44.2°F6.8°C 86% 5.6 mph N9.0 kmh N 8.3 mph13.4 kmh 29.85 in1010.8 mb 0.00 in0.0 mm 0.00 in/hr0.0 mm/hr 0.00 in0.0 mm
12:21 AM 48.4°F9.1°C 44.4°F6.9°C 86% 5.5 mph N8.9 kmh N 8.3 mph13.4 kmh 29.85 in1010.8 mb 0.00 in0.0 mm 0.00 in/hr0.0 mm/hr 0.00 in0.0 mm
12:20 AM 48.2°F9.0°C 44.2°F6.8°C 86% 5.7 mph NNE9.2 kmh NNE 8.3 mph13.4 kmh 29.85 in1010.8 mb 0.00 in0.0 mm 0.00 in/hr0.0 mm/hr 0.00 in0.0 mm
12:19 AM 48.2°F9.0°C 44.2°F6.8°C 86% 5.6 mph NNE9.0 kmh NNE 8.3 mph13.4 kmh 29.85 in1010.8 mb 0.00 in0.0 mm 0.00 in/hr0.0 mm/hr 0.00 in0.0 mm
12:18 AM 48.2°F9.0°C 44.5°F6.9°C 87% 5.4 mph NNE8.7 kmh NNE 6.9 mph11.1 kmh 29.85 in1010.8 mb 0.00 in0.0 mm 0.00 in/hr0.0 mm/hr 0.00 in0.0 mm
12:17 AM 48.0°F8.9°C 44.3°F6.8°C 87% 5.4 mph NNE8.7 kmh NNE 6.9 mph11.1 kmh 29.85 in1010.8 mb 0.00 in0.0 mm 0.00 in/hr0.0 mm/hr 0.00 in0.0 mm
12:16 AM 48.0°F8.9°C 44.3°F6.8°C 87% 5.0 mph NNE8.0 kmh NNE 6.9 mph11.1 kmh 29.85 in1010.8 mb 0.00 in0.0 mm 0.00 in/hr0.0 mm/hr 0.00 in0.0 mm
12:15 AM 48.0°F8.9°C 44.3°F6.8°C 87% 4.8 mph NNE7.7 kmh NNE 6.9 mph11.1 kmh 29.85 in1010.8 mb 0.00 in0.0 mm 0.00 in/hr0.0 mm/hr 0.00 in0.0 mm
12:14 AM 48.0°F8.9°C 44.3°F6.8°C 87% 4.6 mph NNE7.4 kmh NNE 6.9 mph11.1 kmh 29.85 in1010.8 mb 0.00 in0.0 mm 0.00 in/hr0.0 mm/hr 0.00 in0.0 mm
12:13 AM 47.8°F8.8°C 44.2°F6.8°C 87% 4.5 mph NNE7.2 kmh NNE 6.9 mph11.1 kmh 29.85 in1010.8 mb 0.00 in0.0 mm 0.00 in/hr0.0 mm/hr 0.00 in0.0 mm
12:12 AM 47.8°F8.8°C 44.5°F6.9°C 88% 4.3 mph NNE6.9 kmh NNE 6.9 mph11.1 kmh 29.85 in1010.8 mb 0.00 in0.0 mm 0.00 in/hr0.0 mm/hr 0.00 in0.0 mm
12:11 AM 47.8°F8.8°C 44.5°F6.9°C 88% 4.0 mph NNE6.4 kmh NNE 6.9 mph11.1 kmh 29.85 in1010.8 mb 0.00 in0.0 mm 0.00 in/hr0.0 mm/hr 0.00 in0.0 mm
12:10 AM 47.7°F8.7°C 44.3°F6.8°C 88% 3.7 mph NNE6.0 kmh NNE 6.0 mph9.7 kmh 29.84 in1010.5 mb 0.00 in0.0 mm 0.00 in/hr0.0 mm/hr 0.00 in0.0 mm
12:09 AM 47.7°F8.7°C 44.3°F6.8°C 88% 3.4 mph NNE5.5 kmh NNE 6.0 mph9.7 kmh 29.85 in1010.8 mb 0.00 in0.0 mm 0.00 in/hr0.0 mm/hr 0.00 in0.0 mm
12:08 AM 47.7°F8.7°C 44.3°F6.8°C 88% 3.0 mph NE4.8 kmh NE 5.4 mph8.7 kmh 29.85 in1010.8 mb 0.00 in0.0 mm 0.00 in/hr0.0 mm/hr 0.00 in0.0 mm
12:07 AM 47.7°F8.7°C 44.3°F6.8°C 88% 2.7 mph NE4.3 kmh NE 3.8 mph6.1 kmh 29.85 in1010.8 mb 0.00 in0.0 mm 0.00 in/hr0.0 mm/hr 0.00 in0.0 mm
12:06 AM 47.7°F8.7°C 44.3°F6.8°C 88% 2.8 mph NE4.5 kmh NE 3.8 mph6.1 kmh 29.85 in1010.8 mb 0.00 in0.0 mm 0.00 in/hr0.0 mm/hr 0.00 in0.0 mm
12:05 AM 47.7°F8.7°C 44.3°F6.8°C 88% 2.8 mph NE4.5 kmh NE 4.5 mph7.2 kmh 29.85 in1010.8 mb 0.00 in0.0 mm 0.00 in/hr0.0 mm/hr 0.00 in0.0 mm
12:04 AM 47.8°F8.8°C 44.5°F6.9°C 88% 2.9 mph NE4.7 kmh NE 5.4 mph8.7 kmh 29.85 in1010.8 mb 0.00 in0.0 mm 0.00 in/hr0.0 mm/hr 0.00 in0.0 mm
12:03 AM 47.8°F8.8°C 44.5°F6.9°C 88% 3.1 mph NE5.0 kmh NE 5.4 mph8.7 kmh 29.84 in1010.5 mb 0.00 in0.0 mm 0.00 in/hr0.0 mm/hr 0.00 in0.0 mm
12:02 AM 47.8°F8.8°C 44.2°F6.8°C 87% 3.1 mph NE5.0 kmh NE 5.4 mph8.7 kmh 29.84 in1010.5 mb 0.00 in0.0 mm 0.00 in/hr0.0 mm/hr 0.00 in0.0 mm
12:01 AM 47.7°F8.7°C 44.0°F6.7°C 87% 3.2 mph NE5.1 kmh NE 5.4 mph8.7 kmh 29.84 in1010.5 mb 0.00 in0.0 mm 0.00 in/hr0.0 mm/hr 0.00 in0.0 mm
12:00 AM 47.8°F8.8°C 44.2°F6.8°C 87% 3.2 mph NE5.1 kmh NE 5.4 mph8.7 kmh 29.84 in1010.5 mb 0.00 in0.0 mm 0.00 in/hr0.0 mm/hr 0.00 in0.0 mm